Wetterdaten: Woche 31.12.01 - 06.01.02 (KW1)
Datum Zeit Temperatur Luftfeuchte Luftdruck Regenmenge Wind Richtung Taupunkt Windchill
31.12.2001 00:00 -4.6 C 82 % 1011.8 hPa 0.0 l/m 5.6 km/h (1 Bft) O-SO -7.1 C -6.9 C
31.12.2001 01:00 -4.6 C 84 % 1011.8 hPa 0.0 l/m 0.3 km/h (0 Bft) SO -6.9 C -4.7 C
31.12.2001 02:00 -4.5 C 85 % 1012.7 hPa 0.0 l/m 0.1 km/h (0 Bft) O-SO -6.7 C -4.5 C
31.12.2001 03:00 -3.6 C 83 % 1012.8 hPa 0.0 l/m 1.2 km/h (1 Bft) W -6.0 C -3.9 C
31.12.2001 04:00 -3.1 C 80 % 1013.7 hPa 0.0 l/m 0.0 km/h (0 Bft) N -6.1 C -3.1 C
31.12.2001 05:00 -3.1 C 84 % 1013.9 hPa 0.0 l/m 3.2 km/h (1 Bft) SO -5.3 C -3.8 C
31.12.2001 06:00 -3.1 C 84 % 1014.9 hPa 0.0 l/m 0.2 km/h (0 Bft) O-SO -5.4 C -3.1 C
31.12.2001 07:00 -3.7 C 87 % 1016.2 hPa 0.0 l/m 0.3 km/h (0 Bft) NW -5.6 C -3.8 C
31.12.2001 08:00 -4.8 C 88 % 1017.4 hPa 0.0 l/m 0.6 km/h (0 Bft) W -6.5 C -4.8 C
31.12.2001 09:00 -3.5 C 85 % 1018.7 hPa 0.0 l/m 0.0 km/h (0 Bft) N -5.7 C -3.5 C
31.12.2001 10:00 -2.5 C 78 % 1020.0 hPa 0.0 l/m 0.9 km/h (0 Bft) O-SO -5.8 C -2.8 C
31.12.2001 11:00 -1.5 C 75 % 1021.0 hPa 0.0 l/m 2.7 km/h (1 Bft) O-SO -5.3 C -2.0 C
31.12.2001 12:00 -0.9 C 68 % 1021.9 hPa 0.0 l/m 1.9 km/h (1 Bft) W -6.2 C -1.1 C
31.12.2001 13:00 -0.1 C 62 % 1022.2 hPa 0.0 l/m 0.8 km/h (0 Bft) W -6.6 C -0.1 C
31.12.2001 14:00 -0.0 C 64 % 1022.7 hPa 0.0 l/m 14.2 km/h (3 Bft) W -6.0 C -4.1 C
31.12.2001 15:00 -0.9 C 65 % 1023.8 hPa 0.0 l/m 13.5 km/h (3 Bft) W-NW -6.5 C -4.8 C
31.12.2001 16:00 -1.9 C 69 % 1024.9 hPa 0.0 l/m 10.8 km/h (2 Bft) W-NW -6.8 C -5.2 C
31.12.2001 17:00 -2.8 C 72 % 1025.9 hPa 0.0 l/m 3.0 km/h (1 Bft) W-NW -7.1 C -3.8 C
31.12.2001 18:00 -4.4 C 77 % 1026.8 hPa 0.0 l/m 2.2 km/h (1 Bft) W -7.8 C -5.2 C
31.12.2001 19:00 -4.6 C 81 % 1028.0 hPa 0.0 l/m 0.0 km/h (0 Bft) N -7.3 C -4.6 C
31.12.2001 20:00 -4.2 C 69 % 1028.5 hPa 0.0 l/m 0.0 km/h (0 Bft) N -8.9 C -4.2 C
31.12.2001 21:00 -5.5 C 71 % 1029.1 hPa 0.0 l/m 0.6 km/h (0 Bft) N-NO -9.9 C -5.6 C
31.12.2001 22:00 -6.9 C 75 % 1029.5 hPa 0.0 l/m 0.0 km/h (0 Bft) N-NW -10.6 C -6.9 C
31.12.2001 23:00 -7.9 C 79 % 1030.4 hPa 0.0 l/m 1.1 km/h (0 Bft) N-NW -10.9 C -8.3 C
01.01.2002 00:00 -8.6 C 81 % 1030.5 hPa 0.0 l/m 0.6 km/h (0 Bft) W-NW -11.1 C -8.6 C
01.01.2002 01:00 -9.1 C 82 % 1031.4 hPa 0.0 l/m 0.1 km/h (0 Bft) N -11.7 C -9.1 C
01.01.2002 02:00 -9.5 C 81 % 1031.6 hPa 0.0 l/m 0.3 km/h (0 Bft) W-NW -12.1 C -9.6 C
01.01.2002 03:00 -10.1 C 80 % 1032.0 hPa 0.0 l/m 0.0 km/h (0 Bft) N -12.8 C -10.1 C
01.01.2002 04:00 -10.4 C 80 % 1032.6 hPa 0.0 l/m 0.0 km/h (0 Bft) N -13.2 C -10.4 C
01.01.2002 05:00 -10.6 C 81 % 1032.6 hPa 0.0 l/m 0.0 km/h (0 Bft) N -13.3 C -10.6 C
01.01.2002 06:00 -10.9 C 81 % 1032.7 hPa 0.0 l/m 0.0 km/h (0 Bft) N -13.6 C -10.9 C
01.01.2002 07:00 -11.1 C 80 % 1033.7 hPa 0.0 l/m 0.0 km/h (0 Bft) N -13.8 C -11.1 C
01.01.2002 08:00 -11.3 C 80 % 1034.6 hPa 0.0 l/m 0.0 km/h (0 Bft) N -14.1 C -11.3 C
01.01.2002 09:00 -9.4 C 78 % 1034.7 hPa 0.0 l/m 0.0 km/h (0 Bft) N -12.5 C -9.4 C
01.01.2002 10:00 -8.1 C 73 % 1034.7 hPa 0.0 l/m 1.6 km/h (1 Bft) W-NW -12.2 C -8.8 C
01.01.2002 11:00 -6.4 C 68 % 1034.7 hPa 0.0 l/m 0.6 km/h (0 Bft) W-NW -11.2 C -6.4 C
01.01.2002 12:00 -4.2 C 66 % 1034.3 hPa 0.0 l/m 0.1 km/h (0 Bft) S-SW -9.6 C -4.2 C
01.01.2002 13:00 -2.5 C 69 % 1033.7 hPa 0.0 l/m 5.5 km/h (1 Bft) O-SO -7.4 C -4.4 C
01.01.2002 14:00 -2.0 C 69 % 1033.7 hPa 0.0 l/m 3.1 km/h (1 Bft) O-SO -7.0 C -2.9 C
01.01.2002 15:00 -2.0 C 67 % 1033.7 hPa 0.0 l/m 3.2 km/h (1 Bft) O-SO -7.4 C -2.9 C
01.01.2002 16:00 -3.2 C 68 % 1033.7 hPa 0.0 l/m 3.3 km/h (1 Bft) O-SO -8.2 C -3.7 C
01.01.2002 17:00 -4.9 C 73 % 1033.7 hPa 0.0 l/m 2.2 km/h (1 Bft) O-SO -9.0 C -5.6 C
01.01.2002 18:00 -6.0 C 78 % 1033.7 hPa 0.0 l/m 3.5 km/h (1 Bft) O-SO -9.3 C -7.5 C
01.01.2002 19:00 -6.6 C 79 % 1033.7 hPa 0.0 l/m 6.9 km/h (2 Bft) O-SO -9.6 C -9.2 C
01.01.2002 20:00 -7.7 C 82 % 1033.7 hPa 0.0 l/m 1.8 km/h (1 Bft) O -10.2 C -8.2 C
01.01.2002 21:00 -8.5 C 83 % 1033.7 hPa 0.0 l/m 3.6 km/h (1 Bft) O -10.9 C -10.2 C
01.01.2002 22:00 -9.0 C 83 % 1033.7 hPa 0.0 l/m 3.8 km/h (1 Bft) O-SO -11.3 C -10.3 C
01.01.2002 23:00 -9.4 C 83 % 1033.7 hPa 0.0 l/m 2.6 km/h (1 Bft) O-SO -11.7 C -10.0 C
02.01.2002 00:00 -9.8 C 82 % 1033.7 hPa 0.0 l/m 0.1 km/h (0 Bft) O-SO -12.2 C -9.8 C
02.01.2002 01:00 -10.2 C 82 % 1033.7 hPa 0.0 l/m 0.6 km/h (0 Bft) O-SO -12.7 C -10.2 C
02.01.2002 02:00 -10.4 C 81 % 1033.7 hPa 0.0 l/m 0.2 km/h (0 Bft) N -13.0 C -10.4 C
02.01.2002 03:00 -10.7 C 80 % 1033.7 hPa 0.0 l/m 0.2 km/h (0 Bft) O-SO -13.4 C -10.7 C
02.01.2002 04:00 -11.2 C 79 % 1033.5 hPa 0.0 l/m 0.0 km/h (0 Bft) N -14.1 C -11.2 C
02.01.2002 05:00 -11.5 C 79 % 1033.2 hPa 0.0 l/m 0.0 km/h (0 Bft) N -14.4 C -11.5 C
02.01.2002 06:00 -11.8 C 78 % 1032.7 hPa 0.0 l/m 0.0 km/h (0 Bft) N -14.7 C -11.8 C
02.01.2002 07:00 -12.0 C 78 % 1032.6 hPa 0.0 l/m 0.0 km/h (0 Bft) N -15.0 C -12.0 C
02.01.2002 08:00 -12.1 C 78 % 1032.6 hPa 0.0 l/m 0.0 km/h (0 Bft) N -15.1 C -12.1 C
02.01.2002 09:00 -10.4 C 78 % 1032.6 hPa 0.0 l/m 0.2 km/h (0 Bft) O-SO -13.5 C -10.4 C
02.01.2002 10:00 -8.7 C 78 % 1032.6 hPa 0.0 l/m 1.0 km/h (0 Bft) SO -11.9 C -9.1 C
02.01.2002 11:00 -7.1 C 75 % 1031.9 hPa 0.0 l/m 0.3 km/h (0 Bft) W-NW -10.8 C -7.1 C
02.01.2002 12:00 -4.9 C 72 % 1031.0 hPa 0.0 l/m 1.1 km/h (0 Bft) W -9.1 C -5.0 C
02.01.2002 13:00 -3.4 C 72 % 1029.7 hPa 0.0 l/m 1.6 km/h (1 Bft) W -7.7 C -3.9 C
02.01.2002 14:00 -2.3 C 70 % 1028.7 hPa 0.0 l/m 4.0 km/h (1 Bft) W-NW -7.0 C -3.5 C
02.01.2002 15:00 -2.2 C 69 % 1028.5 hPa 0.0 l/m 1.6 km/h (1 Bft) O-SO -7.1 C -2.7 C
02.01.2002 16:00 -2.9 C 72 % 1028.5 hPa 0.0 l/m 5.0 km/h (1 Bft) O-SO -7.2 C -4.7 C
02.01.2002 17:00 -4.7 C 77 % 1028.5 hPa 0.0 l/m 0.7 km/h (0 Bft) O -8.1 C -4.7 C
02.01.2002 18:00 -5.2 C 78 % 1028.4 hPa 0.0 l/m 5.3 km/h (1 Bft) O-SO -8.4 C -7.2 C
02.01.2002 19:00 -6.0 C 82 % 1028.3 hPa 0.0 l/m 0.0 km/h (0 Bft) N -8.6 C -6.0 C
02.01.2002 20:00 -7.2 C 83 % 1027.8 hPa 0.0 l/m 0.0 km/h (0 Bft) N -9.5 C -7.2 C
02.01.2002 21:00 -7.4 C 84 % 1027.4 hPa 0.0 l/m 0.0 km/h (0 Bft) N -9.6 C -7.4 C
02.01.2002 22:00 -8.1 C 84 % 1027.1 hPa 0.0 l/m 0.0 km/h (0 Bft) N -10.3 C -8.1 C
02.01.2002 23:00 -8.9 C 83 % 1026.4 hPa 0.0 l/m 0.0 km/h (0 Bft) N -11.2 C -8.9 C
03.01.2002 00:00 -9.4 C 83 % 1026.4 hPa 0.0 l/m 0.0 km/h (0 Bft) N -11.8 C -9.4 C
03.01.2002 01:00 -9.4 C 83 % 1026.4 hPa 0.0 l/m 0.0 km/h (0 Bft) N -11.7 C -9.4 C
03.01.2002 02:00 -9.3 C 83 % 1026.4 hPa 0.0 l/m 0.0 km/h (0 Bft) N -11.7 C -9.3 C
03.01.2002 03:00 -9.0 C 82 % 1026.0 hPa 0.0 l/m 1.1 km/h (1 Bft) O-SO -11.4 C -9.5 C
03.01.2002 04:00 -9.4 C 82 % 1025.3 hPa 0.0 l/m 0.0 km/h (0 Bft) N -11.9 C -9.4 C
03.01.2002 05:00 -8.4 C 84 % 1025.3 hPa 0.0 l/m 1.4 km/h (1 Bft) SO -10.6 C -9.0 C
03.01.2002 06:00 -7.4 C 85 % 1025.3 hPa 0.0 l/m 2.0 km/h (1 Bft) O-SO -9.4 C -8.1 C
03.01.2002 07:00 -5.9 C 87 % 1025.3 hPa 0.0 l/m 2.4 km/h (1 Bft) SO -7.7 C -6.7 C
03.01.2002 08:00 -3.8 C 84 % 1025.3 hPa 0.0 l/m 10.7 km/h (2 Bft) O-SO -6.1 C -7.2 C
03.01.2002 09:00 -3.3 C 74 % 1025.3 hPa 0.0 l/m 20.2 km/h (4 Bft) O-SO -7.3 C -9.2 C
03.01.2002 10:00 -3.4 C 70 % 1025.3 hPa 0.0 l/m 17.3 km/h (3 Bft) O -8.0 C -8.7 C
03.01.2002 11:00 -3.2 C 67 % 1025.0 hPa 0.0 l/m 16.9 km/h (3 Bft) O -8.4 C -8.5 C
03.01.2002 12:00 -2.0 C 61 % 1024.3 hPa 0.0 l/m 14.3 km/h (3 Bft) O-NO -8.5 C -6.0 C
03.01.2002 13:00 -0.8 C 58 % 1023.7 hPa 0.0 l/m 8.9 km/h (2 Bft) O-NO -8.1 C -3.5 C
03.01.2002 14:00 -0.3 C 53 % 1023.6 hPa 0.0 l/m 7.8 km/h (2 Bft) NO -8.7 C -2.4 C
03.01.2002 15:00 -0.3 C 49 % 1028.1 hPa 0.0 l/m 8.8 km/h (2 Bft) O-NO -9.6 C -2.8 C
03.01.2002 16:00 -1.5 C 51 % 1030.4 hPa 0.0 l/m 6.4 km/h (2 Bft) O -10.2 C -3.4 C
03.01.2002 17:00 -2.8 C 53 % 1030.4 hPa 0.0 l/m 4.9 km/h (1 Bft) O-SO -11.2 C -4.2 C
03.01.2002 18:00 -3.6 C 54 % 1030.4 hPa 0.0 l/m 9.3 km/h (2 Bft) O -11.5 C -6.3 C
03.01.2002 19:00 -4.4 C 55 % 1030.9 hPa 0.0 l/m 1.8 km/h (1 Bft) O -12.1 C -4.9 C
03.01.2002 20:00 -6.0 C 61 % 1031.4 hPa 0.0 l/m 1.5 km/h (1 Bft) O-NO -12.2 C -6.5 C
03.01.2002 21:00 -6.6 C 66 % 1031.4 hPa 0.0 l/m 6.9 km/h (2 Bft) O-SO -12.0 C -9.9 C
03.01.2002 22:00 -7.5 C 68 % 1031.8 hPa 0.0 l/m 4.6 km/h (1 Bft) O-SO -12.3 C -9.3 C
03.01.2002 23:00 -8.1 C 69 % 1032.5 hPa 0.0 l/m 4.2 km/h (1 Bft) O-SO -12.8 C -10.1 C
04.01.2002 00:00 -8.0 C 68 % 1032.5 hPa 0.0 l/m 7.6 km/h (2 Bft) O-SO -12.8 C -11.7 C
04.01.2002 01:00 -8.5 C 67 % 1032.5 hPa 0.0 l/m 5.4 km/h (1 Bft) O -13.5 C -11.1 C
04.01.2002 02:00 -9.4 C 71 % 1032.5 hPa 0.0 l/m 6.4 km/h (2 Bft) O-SO -13.6 C -12.4 C
04.01.2002 03:00 -9.4 C 72 % 1033.4 hPa 0.0 l/m 5.5 km/h (1 Bft) O-SO -13.5 C -12.5 C
04.01.2002 04:00 -10.2 C 73 % 1033.5 hPa 0.0 l/m 1.0 km/h (0 Bft) O-SO -14.1 C -10.3 C
04.01.2002 05:00 -10.4 C 75 % 1034.1 hPa 0.0 l/m 0.7 km/h (0 Bft) O-SO -14.0 C -10.5 C
04.01.2002 06:00 -9.2 C 72 % 1034.6 hPa 0.0 l/m 0.0 km/h (0 Bft) N -13.4 C -9.2 C
04.01.2002 07:00 -8.3 C 64 % 1034.6 hPa 0.0 l/m 0.3 km/h (0 Bft) O-NO -13.8 C -8.5 C
04.01.2002 08:00 -8.1 C 64 % 1035.5 hPa 0.0 l/m 0.4 km/h (0 Bft) N-NO -13.7 C -8.1 C
04.01.2002 09:00 -7.8 C 63 % 1035.7 hPa 0.0 l/m 0.1 km/h (0 Bft) N -13.6 C -7.8 C
04.01.2002 10:00 -6.8 C 63 % 1036.7 hPa 0.0 l/m 1.3 km/h (1 Bft) O-SO -12.7 C -7.2 C
04.01.2002 11:00 -6.0 C 62 % 1036.3 hPa 0.0 l/m 1.4 km/h (1 Bft) O -12.0 C -6.4 C
04.01.2002 12:00 -5.3 C 61 % 1036.3 hPa 0.0 l/m 1.2 km/h (1 Bft) O -11.6 C -5.6 C
04.01.2002 13:00 -4.6 C 61 % 1035.6 hPa 0.0 l/m 2.3 km/h (1 Bft) O-SO -11.0 C -5.5 C
04.01.2002 14:00 -4.5 C 60 % 1035.6 hPa 0.0 l/m 0.1 km/h (0 Bft) O -11.0 C -4.5 C
04.01.2002 15:00 -4.8 C 64 % 1035.6 hPa 0.0 l/m 0.2 km/h (0 Bft) N -10.6 C -4.8 C
04.01.2002 16:00 -5.6 C 68 % 1036.2 hPa 0.0 l/m 1.9 km/h (1 Bft) O-SO -10.5 C -6.2 C
04.01.2002 17:00 -6.8 C 74 % 1036.7 hPa 0.0 l/m 1.8 km/h (1 Bft) O-SO -10.6 C -7.3 C
04.01.2002 18:00 -7.5 C 78 % 1036.7 hPa 0.0 l/m 0.1 km/h (0 Bft) N -10.7 C -7.5 C
04.01.2002 19:00 -7.7 C 78 % 1037.0 hPa 0.0 l/m 0.4 km/h (0 Bft) NO -10.9 C -7.7 C
04.01.2002 20:00 -8.1 C 76 % 1037.7 hPa 0.0 l/m 0.2 km/h (0 Bft) NO -11.5 C -8.1 C
04.01.2002 21:00 -8.6 C 78 % 1037.7 hPa 0.0 l/m 0.0 km/h (0 Bft) N -11.6 C -8.6 C
04.01.2002 22:00 -8.9 C 79 % 1038.3 hPa 0.0 l/m 0.0 km/h (0 Bft) N -11.9 C -8.9 C
04.01.2002 23:00 -9.1 C 80 % 1038.5 hPa 0.0 l/m 0.0 km/h (0 Bft) N -11.9 C -9.1 C
05.01.2002 00:00 -9.3 C 80 % 1037.7 hPa 0.0 l/m 0.1 km/h (0 Bft) N -12.1 C -9.3 C
05.01.2002 01:00 -9.7 C 81 % 1037.7 hPa 0.0 l/m 0.0 km/h (0 Bft) N -12.4 C -9.7 C
05.01.2002 02:00 -9.7 C 82 % 1037.7 hPa 0.0 l/m 0.0 km/h (0 Bft) N -12.1 C -9.7 C
05.01.2002 03:00 -10.1 C 81 % 1038.6 hPa 0.0 l/m 0.1 km/h (0 Bft) N -12.7 C -10.1 C
05.01.2002 04:00 -10.1 C 81 % 1038.7 hPa 0.0 l/m 0.0 km/h (0 Bft) N -12.7 C -10.1 C
05.01.2002 05:00 -9.4 C 81 % 1038.7 hPa 0.0 l/m 0.0 km/h (0 Bft) N -12.1 C -9.4 C
05.01.2002 06:00 -9.1 C 80 % 1039.1 hPa 0.0 l/m 0.0 km/h (0 Bft) N -11.8 C -9.1 C
05.01.2002 07:00 -9.2 C 80 % 1039.8 hPa 0.0 l/m 0.1 km/h (0 Bft) N -12.0 C -9.2 C
05.01.2002 08:00 -9.0 C 79 % 1039.8 hPa 0.0 l/m 0.2 km/h (0 Bft) W-NW -11.9 C -9.0 C
05.01.2002 09:00 -8.4 C 80 % 1039.8 hPa 0.0 l/m 0.2 km/h (0 Bft) N -11.2 C -8.4 C
05.01.2002 10:00 -7.4 C 80 % 1039.8 hPa 0.0 l/m 2.1 km/h (1 Bft) O-SO -10.2 C -8.2 C
05.01.2002 11:00 -6.5 C 77 % 1039.8 hPa 0.0 l/m 0.7 km/h (0 Bft) W -9.9 C -6.7 C
05.01.2002 12:00 -5.6 C 75 % 1039.6 hPa 0.0 l/m 0.9 km/h (0 Bft) W -9.3 C -5.6 C
05.01.2002 13:00 -4.4 C 71 % 1038.7 hPa 0.0 l/m 1.7 km/h (1 Bft) O-SO -8.8 C -4.5 C
05.01.2002 14:00 -3.7 C 73 % 1038.7 hPa 0.0 l/m 0.9 km/h (0 Bft) O-SO -7.8 C -3.9 C
05.01.2002 15:00 -4.3 C 76 % 1038.7 hPa 0.0 l/m 1.8 km/h (1 Bft) O-SO -7.8 C -4.8 C
05.01.2002 16:00 -5.6 C 81 % 1039.2 hPa 0.0 l/m 2.6 km/h (1 Bft) O-SO -8.4 C -6.1 C
05.01.2002 17:00 -7.0 C 84 % 1039.8 hPa 0.0 l/m 4.4 km/h (1 Bft) SO -9.2 C -8.6 C
05.01.2002 18:00 -7.1 C 86 % 1039.8 hPa 0.0 l/m 5.7 km/h (1 Bft) SO -9.0 C -9.8 C
05.01.2002 19:00 -6.8 C 85 % 1039.8 hPa 0.0 l/m 1.4 km/h (1 Bft) O-SO -8.8 C -6.9 C
05.01.2002 20:00 -6.7 C 84 % 1039.8 hPa 0.0 l/m 2.2 km/h (1 Bft) O-SO -9.0 C -7.5 C
05.01.2002 21:00 -6.8 C 83 % 1039.8 hPa 0.0 l/m 2.2 km/h (1 Bft) O-SO -9.3 C -7.5 C
05.01.2002 22:00 -6.9 C 83 % 1039.8 hPa 0.0 l/m 2.6 km/h (1 Bft) O-SO -9.4 C -7.9 C
05.01.2002 23:00 -7.0 C 82 % 1039.8 hPa 0.0 l/m 2.3 km/h (1 Bft) O-SO -9.5 C -7.8 C
06.01.2002 00:00 -7.0 C 83 % 1039.8 hPa 0.0 l/m 1.3 km/h (1 Bft) O-SO -9.4 C -7.1 C
06.01.2002 01:00 -7.1 C 83 % 1039.8 hPa 0.0 l/m 0.1 km/h (0 Bft) N -9.5 C -7.1 C
06.01.2002 02:00 -7.4 C 83 % 1039.5 hPa 0.0 l/m 2.5 km/h (1 Bft) O-SO -9.8 C -8.6 C
06.01.2002 03:00 -7.4 C 83 % 1039.6 hPa 0.0 l/m 2.6 km/h (1 Bft) O-SO -9.8 C -8.6 C
06.01.2002 04:00 -7.5 C 81 % 1038.8 hPa 0.0 l/m 4.5 km/h (1 Bft) O-SO -10.2 C -9.4 C
06.01.2002 05:00 -7.7 C 81 % 1038.7 hPa 0.0 l/m 0.1 km/h (0 Bft) N -10.3 C -7.7 C
06.01.2002 06:00 -8.0 C 80 % 1038.3 hPa 0.0 l/m 0.0 km/h (0 Bft) N -10.8 C -8.0 C
06.01.2002 07:00 -7.9 C 81 % 1037.7 hPa 0.0 l/m 0.0 km/h (0 Bft) N -10.6 C -7.9 C
06.01.2002 08:00 -8.0 C 80 % 1038.3 hPa 0.0 l/m 0.3 km/h (0 Bft) W-NW -10.9 C -8.0 C
06.01.2002 09:00 -8.2 C 80 % 1038.7 hPa 0.0 l/m 2.3 km/h (1 Bft) W-NW -11.0 C -9.3 C
06.01.2002 10:00 -7.5 C 78 % 1038.7 hPa 0.0 l/m 0.7 km/h (0 Bft) SO -10.6 C -7.7 C
06.01.2002 11:00 -6.6 C 75 % 1038.7 hPa 0.0 l/m 2.3 km/h (1 Bft) O-SO -10.2 C -7.4 C
06.01.2002 12:00 -6.3 C 76 % 1037.9 hPa 0.0 l/m 2.2 km/h (1 Bft) W -9.8 C -6.9 C
06.01.2002 13:00 -6.1 C 76 % 1037.1 hPa 0.0 l/m 1.4 km/h (1 Bft) SO -9.6 C -6.5 C
06.01.2002 14:00 -5.9 C 77 % 1036.7 hPa 0.0 l/m 0.1 km/h (0 Bft) N -9.3 C -5.9 C
06.01.2002 15:00 -5.6 C 78 % 1035.9 hPa 0.0 l/m 1.0 km/h (0 Bft) O -8.9 C -6.0 C
06.01.2002 16:00 -5.7 C 79 % 1035.6 hPa 0.0 l/m 3.6 km/h (1 Bft) O-SO -8.8 C -7.2 C
06.01.2002 17:00 -5.7 C 79 % 1035.8 hPa 0.0 l/m 1.6 km/h (1 Bft) O-SO -8.7 C -6.1 C
06.01.2002 18:00 -6.0 C 80 % 1036.3 hPa 0.0 l/m 0.1 km/h (0 Bft) N -8.9 C -6.0 C
06.01.2002 19:00 -6.0 C 79 % 1036.7 hPa 0.0 l/m 0.4 km/h (0 Bft) O-SO -9.0 C -6.2 C
06.01.2002 20:00 -6.3 C 78 % 1035.7 hPa 0.0 l/m 0.9 km/h (0 Bft) O -9.4 C -6.5 C
06.01.2002 21:00 -6.3 C 80 % 1035.6 hPa 0.0 l/m 0.5 km/h (0 Bft) NW -9.2 C -6.3 C
06.01.2002 22:00 -6.5 C 80 % 1035.3 hPa 0.0 l/m 1.6 km/h (1 Bft) O-SO -9.3 C -7.0 C
06.01.2002 23:00 -6.5 C 80 % 1034.6 hPa 0.0 l/m 1.4 km/h (1 Bft) O-SO -9.4 C -6.9 C
Min-Datum _ 02.01.02 03.01.02 31.12.01 - 31.12.01 - 02.01.02 04.01.02
_ Min-Zeit 07:51 15:34 00:01 - 00:55 - 07:51 02:56
Minimum _ -12.3 C 48 % 1011.8 hPa - 0.0 km/h (0 Bft) - -15.3 C -15.1 C
Max-Datum _ 31.12.01 31.12.01 05.01.02 31.12.01 03.01.02 - 31.12.01 31.12.01
_ Max-Zeit 14:10 08:49 06:33 00:01 12:25 - 06:52 13:49
Maximum _ 0.7 C 90 % 1039.8 hPa 0.0 l/m 36.1 km/h
O-NO (5 Bft)
- -4.9 C 0.4 C
Durchschnitt _ -6.6 C 76 % 1032.1 hPa #0.0 l/m 2.3 km/h (1 Bft) O-SO -10.2 C -7.3 C

Durchschnitt Minimum Temp.-7.1 C
Durchschnitt Maximum Temp.-6.0 C
© Kaiko 2002